This is the latest recevied weather packets stored in our database for station/object 9W2YIE-13. If no packets are shown the sender has not sent any weather packets the latest 10 day(s).
| Time | Temp. | Humidity | Pressure | Rain* | Wind** | Luminosity | Snow |
|---|---|---|---|---|---|---|---|
| 1787991009 | 39.44° C | 37% | 1005 hPa | - | - | 0 W/m² | - |
| 1787990080 | 51.67° C | 21% | 1004 hPa | - | - | 0 W/m² | - |
| 1787989127 | 52.22° C | 20% | 1004 hPa | - | - | 0 W/m² | - |
| 1787988120 | 52.78° C | 21% | 1004 hPa | - | - | 0 W/m² | - |
| 1787987182 | 52.78° C | 20% | 1004 hPa | - | - | 0 W/m² | - |
| 1787986709 | 50.56° C | 21% | 1004 hPa | - | - | 0 W/m² | - |
| 1787985772 | 52.22° C | 21% | 1005 hPa | - | - | 0 W/m² | - |
| 1787984780 | 51.67° C | 21% | 1005 hPa | - | - | 0 W/m² | - |
| 1787983781 | 50.56° C | 23% | 1005 hPa | - | - | 0 W/m² | - |
| 1787983415 | 50° C | 23% | 1005 hPa | - | - | 0 W/m² | - |
| 1787982480 | 50° C | 23% | 1006 hPa | - | - | 0 W/m² | - |
| 1787981543 | 48.89° C | 26% | 1006 hPa | - | - | 0 W/m² | - |
| 1787980494 | 49.44° C | 25% | 1006 hPa | - | - | 0 W/m² | - |
| 1787979484 | 46.11° C | 30% | 1007 hPa | - | - | 0 W/m² | - |
| 1787978482 | 47.78° C | 27% | 1007 hPa | - | - | 0 W/m² | - |
| 1787977482 | 44.44° C | 31% | 1007 hPa | - | - | 0 W/m² | - |
| 1787976532 | 44.44° C | 32% | 1007 hPa | - | - | 0 W/m² | - |
| 1787975467 | 44.44° C | 32% | 1007 hPa | - | - | 0 W/m² | - |
| 1787975058 | 44.44° C | 32% | 1007 hPa | - | - | 0 W/m² | - |
| 1787974066 | 43.33° C | 34% | 1008 hPa | - | - | 0 W/m² | - |
| 1787973671 | 42.78° C | 34% | 1008 hPa | - | - | 0 W/m² | - |
| 1787972674 | 42.78° C | 35% | 1008 hPa | - | - | 0 W/m² | - |
| 1787971711 | 43.33° C | 34% | 1008 hPa | - | - | 0 W/m² | - |
| 1787970732 | 43.33° C | 35% | 1008 hPa | - | - | 0 W/m² | - |
| 1787969761 | 43.33° C | 34% | 1008 hPa | - | - | 0 W/m² | - |
* Rain since midnight (hover to see other rain measurements)
** Current wind speed in m/s (hover to see current wind gust speed)